createdAt,value
2023-02-01T00:00:17.274Z,22.48
2023-02-01T00:06:17.321Z,22.49
2023-02-01T00:34:36.289Z,22.46
2023-02-01T00:35:35.928Z,22.48
2023-02-01T00:36:36.138Z,22.49
2023-02-01T00:37:35.830Z,22.50
2023-02-01T00:38:35.825Z,22.50
2023-02-01T00:39:35.876Z,22.51
2023-02-01T00:40:35.863Z,22.51
2023-02-01T00:42:55.266Z,22.41
2023-02-01T00:43:56.757Z,22.46
2023-02-01T00:44:55.159Z,22.48
2023-02-01T00:47:14.658Z,22.27
2023-02-01T00:49:13.942Z,22.44
2023-02-01T00:50:14.048Z,22.46
2023-02-01T00:51:14.180Z,22.47
2023-02-01T00:52:14.242Z,22.48
2023-02-01T00:53:14.982Z,22.48
2023-02-01T00:54:13.969Z,22.49
2023-02-01T00:55:13.851Z,22.48
2023-02-01T00:56:13.779Z,22.49
2023-02-01T00:57:13.794Z,22.49
2023-02-01T00:58:13.729Z,22.50
2023-02-01T00:59:13.733Z,22.49
2023-02-01T01:00:13.734Z,22.50
2023-02-01T01:02:32.989Z,22.43
2023-02-01T01:03:33.005Z,22.47
2023-02-01T01:04:32.710Z,22.48
2023-02-01T01:05:32.790Z,22.48
2023-02-01T01:06:32.676Z,22.48
2023-02-01T01:07:32.669Z,22.49
2023-02-01T01:08:32.730Z,22.49
2023-02-01T01:09:32.602Z,22.49
2023-02-01T01:10:32.634Z,22.49
2023-02-01T01:11:32.702Z,22.49
2023-02-01T01:12:32.707Z,22.49
2023-02-01T01:13:32.616Z,22.50
2023-02-01T01:14:32.598Z,22.50
2023-02-01T01:15:32.607Z,22.50
2023-02-01T01:16:32.983Z,22.50
2023-02-01T01:17:32.568Z,22.50
2023-02-01T01:18:32.666Z,22.50
2023-02-01T01:19:32.561Z,22.50
2023-02-01T01:20:32.610Z,22.50
2023-02-01T01:21:32.666Z,22.50
2023-02-01T01:22:32.529Z,22.51
2023-02-01T01:23:32.578Z,22.51
2023-02-01T01:24:32.576Z,22.50
2023-02-01T01:25:32.785Z,22.50
2023-02-01T01:26:32.609Z,22.50
2023-02-01T01:27:32.612Z,22.50
2023-02-01T01:28:32.502Z,22.50
2023-02-01T01:29:32.529Z,22.50
2023-02-01T01:30:32.590Z,22.49
2023-02-01T01:31:32.543Z,22.50
2023-02-01T01:32:32.446Z,22.49
2023-02-01T01:33:32.483Z,22.50
2023-02-01T01:34:32.490Z,22.51
2023-02-01T01:36:51.671Z,22.41
2023-02-01T01:37:51.989Z,22.45
2023-02-01T01:38:51.426Z,22.47
2023-02-01T02:30:48.790Z,22.42
2023-02-01T02:31:48.069Z,22.44
2023-02-01T02:34:43.255Z,22.21
2023-02-01T02:35:43.157Z,22.39
2023-02-01T02:36:43.253Z,22.43
2023-02-01T02:37:43.125Z,22.46
2023-02-01T02:38:44.158Z,22.49
2023-02-01T02:39:43.375Z,22.50
2023-02-01T02:40:43.180Z,22.51
2023-02-01T02:41:43.488Z,22.53
2023-02-01T02:42:43.205Z,22.55
2023-02-01T02:43:43.186Z,22.55
2023-02-01T02:44:43.315Z,22.56
2023-02-01T02:45:43.273Z,22.58
2023-02-01T02:46:43.279Z,22.59
2023-02-01T02:47:43.240Z,22.59
2023-02-01T02:48:43.299Z,22.61
2023-02-01T02:49:43.206Z,22.62
2023-02-01T02:50:43.149Z,22.62
2023-02-01T02:51:43.156Z,22.63
2023-02-01T02:52:43.194Z,22.64
2023-02-01T02:53:43.179Z,22.65
2023-02-01T02:54:43.185Z,22.65
2023-02-01T02:55:43.188Z,22.66
2023-02-01T02:58:02.269Z,22.58
2023-02-01T02:59:03.272Z,22.63
2023-02-01T03:00:02.248Z,22.65
2023-02-01T03:01:02.915Z,22.66
2023-02-01T03:02:02.088Z,22.67
2023-02-01T03:03:02.177Z,22.68
2023-02-01T03:04:02.062Z,22.69
2023-02-01T03:05:02.088Z,22.70
2023-02-01T03:06:02.062Z,22.70
2023-02-01T03:07:02.049Z,22.72
2023-02-01T03:08:02.075Z,22.73
2023-02-01T03:09:01.998Z,22.73
2023-02-01T03:10:02.086Z,22.73
2023-02-01T03:11:01.994Z,22.74
2023-02-01T03:12:02.032Z,22.75
2023-02-01T03:13:02.037Z,22.75
2023-02-01T03:14:01.990Z,22.75
2023-02-01T03:15:01.922Z,22.76
2023-02-01T03:17:21.519Z,22.72
2023-02-01T03:18:21.561Z,22.75
2023-02-01T03:20:21.415Z,22.77
2023-02-01T03:21:21.162Z,22.78
2023-02-01T03:23:40.047Z,22.72
2023-02-01T03:24:40.372Z,22.76
2023-02-01T03:25:41.087Z,22.78
2023-02-01T03:26:40.125Z,22.79
2023-02-01T03:27:39.893Z,22.80
2023-02-01T03:28:39.839Z,22.80
2023-02-01T03:29:39.858Z,22.81
2023-02-01T03:55:54.833Z,22.50
2023-02-01T03:56:55.584Z,22.68
2023-02-01T03:57:54.677Z,22.73
2023-02-01T03:58:54.560Z,22.77
2023-02-01T03:59:54.350Z,22.80
2023-02-01T04:00:54.325Z,22.81
2023-02-01T04:01:54.273Z,22.83
2023-02-01T04:02:54.270Z,22.85
2023-02-01T04:03:54.261Z,22.86
2023-02-01T04:04:54.328Z,22.87
2023-02-01T04:05:54.290Z,22.86
2023-02-01T04:06:54.422Z,22.87
2023-02-01T04:07:54.227Z,22.88
2023-02-01T04:08:54.283Z,22.88
2023-02-01T04:09:54.248Z,22.88
2023-02-01T04:10:54.239Z,22.90
2023-02-01T04:11:54.307Z,22.89
2023-02-01T04:12:54.318Z,22.90
2023-02-01T04:13:54.179Z,22.91
2023-02-01T04:14:54.284Z,22.92
2023-02-01T04:15:54.245Z,22.92
2023-02-01T04:16:54.214Z,22.91
2023-02-01T04:17:54.207Z,22.91
2023-02-01T04:18:54.196Z,22.92
2023-02-01T04:19:55.560Z,22.92
2023-02-01T04:23:13.299Z,22.89
2023-02-01T04:24:13.570Z,22.91
2023-02-01T04:25:13.401Z,22.91
2023-02-01T04:26:13.289Z,22.92
2023-02-01T04:27:14.428Z,22.92
2023-02-01T04:28:14.505Z,22.93
2023-02-01T04:29:13.496Z,22.93
2023-02-01T04:30:14.416Z,22.94
2023-02-01T04:31:13.863Z,22.94
2023-02-01T04:32:13.672Z,22.93
2023-02-01T04:33:13.692Z,22.94
2023-02-01T04:34:14.767Z,22.93
2023-02-01T04:45:52.362Z,22.86
2023-02-01T04:46:51.715Z,22.88
2023-02-01T04:49:10.853Z,22.81
2023-02-01T04:50:10.719Z,22.85
2023-02-01T04:51:11.114Z,22.86
2023-02-01T04:52:11.316Z,22.88
2023-02-01T04:53:10.421Z,22.87
2023-02-01T04:54:10.226Z,22.87
2023-02-01T04:55:11.556Z,22.87
2023-02-01T04:56:10.445Z,22.87
2023-02-01T04:57:10.378Z,22.87
2023-02-01T04:58:10.251Z,22.87
2023-02-01T04:59:10.299Z,22.87
2023-02-01T05:00:10.369Z,22.87
2023-02-01T05:01:10.373Z,22.86
2023-02-01T05:02:10.386Z,22.85
2023-02-01T05:03:11.206Z,22.84
2023-02-01T05:04:11.220Z,22.84
2023-02-01T05:05:10.395Z,22.84
2023-02-01T05:06:11.314Z,22.83
2023-02-01T05:07:10.211Z,22.85
2023-02-01T05:08:10.143Z,22.85
2023-02-01T05:09:10.304Z,22.84
2023-02-01T05:10:10.191Z,22.84
2023-02-01T05:11:10.249Z,22.84
2023-02-01T05:12:10.398Z,22.84
2023-02-01T05:13:10.448Z,22.84
2023-02-01T05:14:10.559Z,22.83
2023-02-01T05:15:10.737Z,22.82
2023-02-01T05:16:11.662Z,22.82
2023-02-01T05:17:10.750Z,22.82
2023-02-01T05:18:10.801Z,22.81
2023-02-01T05:19:11.010Z,22.82
2023-02-01T05:20:10.892Z,22.81
2023-02-01T05:21:10.902Z,22.81
2023-02-01T05:22:11.118Z,22.81
2023-02-01T05:23:11.028Z,22.82
2023-02-01T05:24:11.122Z,22.82
2023-02-01T05:25:11.266Z,22.82
2023-02-01T05:26:11.313Z,22.82
2023-02-01T05:27:11.279Z,22.82
2023-02-01T05:29:11.379Z,22.83
2023-02-01T05:30:12.023Z,22.83
2023-02-01T05:31:11.525Z,22.83
2023-02-01T05:32:21.621Z,22.83
2023-02-01T05:34:11.535Z,22.81
2023-02-01T05:35:11.537Z,22.80
2023-02-01T05:36:11.613Z,22.80
2023-02-01T05:37:11.527Z,22.80
2023-02-01T05:39:11.480Z,22.79
2023-02-01T05:41:11.525Z,22.80
2023-02-01T05:42:11.657Z,22.80
2023-02-01T05:43:11.432Z,22.80
2023-02-01T05:44:11.720Z,22.80
2023-02-01T05:45:11.631Z,22.81
2023-02-01T05:46:11.971Z,22.81
2023-02-01T05:47:11.945Z,22.83
2023-02-01T05:48:11.785Z,22.82
2023-02-01T05:49:12.137Z,22.81
2023-02-01T05:50:11.929Z,22.82
2023-02-01T05:51:12.036Z,22.83
2023-02-01T05:52:11.982Z,22.82
2023-02-01T05:53:12.236Z,22.82
2023-02-01T05:54:12.119Z,22.81
2023-02-01T05:55:12.238Z,22.79
2023-02-01T05:56:12.427Z,22.79
2023-02-01T05:57:12.372Z,22.78
2023-02-01T05:58:12.278Z,22.76
2023-02-01T05:59:12.378Z,22.76
2023-02-01T06:32:15.127Z,19.45
2023-02-01T06:34:32.713Z,18.26
2023-02-01T06:35:32.823Z,18.58
2023-02-01T06:36:34.068Z,18.30
2023-02-01T06:37:32.631Z,17.48
2023-02-01T06:38:32.646Z,17.50
2023-02-01T06:39:32.563Z,17.60
2023-02-01T06:40:32.631Z,17.91
2023-02-01T06:41:33.643Z,18.10
2023-02-01T06:42:32.616Z,17.96
2023-02-01T06:43:32.586Z,17.65
2023-02-01T06:44:32.580Z,17.20
2023-02-01T07:39:24.264Z,20.90
2023-02-01T08:15:53.941Z,21.55
2023-02-01T08:16:53.605Z,21.79
2023-02-01T08:17:53.761Z,21.87
2023-02-01T08:18:53.913Z,21.92
2023-02-01T08:22:35.669Z,21.81
2023-02-01T08:23:41.224Z,21.89
2023-02-01T08:25:50.564Z,21.74
2023-02-01T09:14:47.565Z,19.78
2023-02-01T09:15:47.514Z,20.02
2023-02-01T09:18:06.087Z,20.45
2023-02-01T09:19:24.916Z,20.65
2023-02-01T09:20:06.608Z,20.81
2023-02-01T09:21:05.598Z,20.96
2023-02-01T09:22:06.137Z,21.07
2023-02-01T09:23:05.655Z,21.11
2023-02-01T09:24:07.266Z,21.20
2023-02-01T09:25:05.708Z,21.29
2023-02-01T09:26:05.626Z,21.37
2023-02-01T09:27:05.617Z,21.44
2023-02-01T09:28:06.470Z,21.50
2023-02-01T09:29:06.933Z,21.56
2023-02-01T09:30:06.873Z,21.61
2023-02-01T09:31:05.792Z,21.70
2023-02-01T09:32:05.887Z,21.72
2023-02-01T09:33:05.807Z,21.53
2023-02-01T09:34:06.314Z,21.42
2023-02-01T09:35:05.859Z,21.33
2023-02-01T09:36:05.843Z,21.31
2023-02-01T09:37:05.937Z,21.33
2023-02-01T09:38:06.061Z,21.36
2023-02-01T09:39:06.013Z,21.38
2023-02-01T09:40:05.902Z,21.40
2023-02-01T09:41:06.807Z,21.42
2023-02-01T09:42:05.896Z,21.42
2023-02-01T09:43:06.982Z,21.45
2023-02-01T09:44:05.987Z,21.48
2023-02-01T09:45:05.907Z,21.50
2023-02-01T09:46:05.970Z,21.54
2023-02-01T10:29:23.289Z,20.66
2023-02-01T10:46:06.647Z,21.15
2023-02-01T10:47:06.463Z,21.35
2023-02-01T10:48:07.003Z,21.34
2023-02-01T10:50:06.617Z,20.12
2023-02-01T10:51:06.807Z,20.10
2023-02-01T10:52:06.840Z,20.15
2023-02-01T10:53:06.764Z,20.25
2023-02-01T10:54:06.750Z,20.37
2023-02-01T10:56:06.811Z,20.58
2023-02-01T10:57:07.934Z,20.67
2023-02-01T10:58:06.949Z,20.76
2023-02-01T10:59:06.959Z,20.83
2023-02-01T11:02:26.518Z,20.92
2023-02-01T11:03:26.468Z,20.98
2023-02-01T11:05:25.946Z,21.09
2023-02-01T11:06:26.745Z,21.16
2023-02-01T11:07:26.036Z,21.22
2023-02-01T11:08:25.973Z,21.28
2023-02-01T11:09:26.073Z,21.35
2023-02-01T11:10:26.313Z,21.40
2023-02-01T11:11:26.019Z,21.43
2023-02-01T11:12:25.927Z,21.49
2023-02-01T11:13:25.946Z,21.53
2023-02-01T11:14:25.938Z,21.57
2023-02-01T11:15:26.567Z,21.59
2023-02-01T11:16:25.865Z,21.63
2023-02-01T11:17:25.896Z,21.67
2023-02-01T11:18:25.903Z,21.70
2023-02-01T11:19:25.879Z,21.74
2023-02-01T11:20:26.063Z,21.76
2023-02-01T11:21:27.097Z,21.78
2023-02-01T11:22:26.847Z,21.81
2023-02-01T11:23:25.821Z,21.84
2023-02-01T11:24:25.848Z,21.86
2023-02-01T11:25:26.275Z,21.88
2023-02-01T11:26:25.856Z,21.90
2023-02-01T11:27:27.886Z,21.91
2023-02-01T11:28:25.839Z,21.95
2023-02-01T11:29:26.829Z,21.97
2023-02-01T11:30:25.886Z,21.99
2023-02-01T11:31:26.020Z,22.01
2023-02-01T11:32:25.951Z,22.02
2023-02-01T11:33:26.293Z,22.05
2023-02-01T11:34:28.727Z,22.06
2023-02-01T11:35:26.246Z,22.06
2023-02-01T11:37:45.297Z,22.10
2023-02-01T11:38:45.415Z,22.14
2023-02-01T11:40:00.344Z,22.17
2023-02-01T11:40:44.967Z,22.14
2023-02-01T11:41:45.274Z,22.17
2023-02-01T11:42:45.791Z,22.22
2023-02-01T11:43:44.885Z,22.20
2023-02-01T11:44:44.877Z,22.19
2023-02-01T11:45:44.934Z,22.19
2023-02-01T11:46:45.144Z,22.20
2023-02-01T11:47:44.899Z,22.19
2023-02-01T11:48:44.836Z,22.19
2023-02-01T11:49:44.794Z,22.20
2023-02-01T11:50:44.816Z,22.20
2023-02-01T11:54:52.529Z,21.72
2023-02-01T11:55:52.208Z,21.92
2023-02-01T11:56:52.424Z,21.97
2023-02-01T11:57:52.199Z,22.02
2023-02-01T11:58:52.156Z,22.04
2023-02-01T11:59:56.747Z,22.06
2023-02-01T12:00:52.184Z,22.10
2023-02-01T12:01:52.192Z,22.12
2023-02-01T12:02:52.251Z,22.13
2023-02-01T12:03:52.200Z,22.16
2023-02-01T12:04:53.237Z,22.17
2023-02-01T12:05:52.167Z,22.18
2023-02-01T12:06:52.154Z,22.20
2023-02-01T12:07:52.081Z,22.21
2023-02-01T12:08:53.174Z,22.23
2023-02-01T12:09:52.211Z,22.24
2023-02-01T12:10:52.150Z,22.25
2023-02-01T12:11:52.101Z,22.27
2023-02-01T12:12:52.547Z,22.28
2023-02-01T12:13:52.231Z,22.29
2023-02-01T12:14:52.236Z,22.30
2023-02-01T12:15:52.257Z,22.31
2023-02-01T12:16:52.227Z,22.30
2023-02-01T12:17:52.189Z,22.32
2023-02-01T12:18:52.297Z,22.33
2023-02-01T12:19:52.382Z,22.33
2023-02-01T12:20:52.211Z,22.33
2023-02-01T12:21:52.213Z,22.32
2023-02-01T12:22:52.269Z,22.31
2023-02-01T12:23:52.254Z,22.30
2023-02-01T12:24:52.331Z,22.30
2023-02-01T12:25:52.412Z,22.31
2023-02-01T12:26:52.607Z,22.31
2023-02-01T12:27:52.453Z,22.33
2023-02-01T12:29:04.327Z,22.33
2023-02-01T12:29:52.762Z,22.26
2023-02-01T12:35:50.997Z,21.32
2023-02-01T12:36:50.898Z,21.34
2023-02-01T12:37:51.003Z,21.42
2023-02-01T12:40:46.159Z,21.37
2023-02-01T12:43:05.826Z,21.67
2023-02-01T12:44:05.484Z,21.80
2023-02-01T12:46:23.899Z,21.86
2023-02-01T13:06:17.738Z,22.42
2023-02-01T13:09:33.225Z,22.27
2023-02-01T13:12:24.535Z,22.29
2023-02-01T13:43:04.568Z,22.43
2023-02-01T13:44:04.476Z,22.65
2023-02-01T13:52:47.241Z,22.65
2023-02-01T14:02:33.328Z,22.61
2023-02-01T14:03:32.992Z,22.65
2023-02-01T14:04:33.451Z,22.66
2023-02-01T14:05:32.936Z,22.67
2023-02-01T14:06:33.955Z,22.68
2023-02-01T14:07:33.754Z,22.70
2023-02-01T14:08:32.850Z,22.72
2023-02-01T14:19:14.526Z,22.36
2023-02-01T14:20:14.244Z,22.55
2023-02-01T14:22:33.815Z,22.20
2023-02-01T14:23:34.265Z,22.29
2023-02-01T14:38:05.417Z,22.39
2023-02-01T14:40:24.333Z,22.56
2023-02-01T14:42:48.273Z,22.51
2023-02-01T14:46:04.335Z,22.61
2023-02-01T14:53:14.328Z,22.56
2023-02-01T14:55:56.261Z,22.36
2023-02-01T15:01:14.400Z,22.61
2023-02-01T15:06:14.150Z,22.58
2023-02-01T15:07:14.197Z,22.62
2023-02-01T15:08:14.074Z,22.64
2023-02-01T15:09:14.037Z,22.66
2023-02-01T15:10:14.081Z,22.67
2023-02-01T15:11:14.503Z,22.67
2023-02-01T15:13:33.333Z,22.56
2023-02-01T15:14:33.185Z,22.61
2023-02-01T15:15:33.218Z,22.63
2023-02-01T15:16:33.999Z,22.65
2023-02-01T15:17:33.230Z,22.66
2023-02-01T15:18:32.942Z,22.67
2023-02-01T15:19:33.023Z,22.69
2023-02-01T15:20:32.901Z,22.60
2023-02-01T15:21:32.923Z,22.22
2023-02-01T15:22:32.978Z,21.49
2023-02-01T15:23:32.998Z,21.28
2023-02-01T15:24:33.904Z,21.28
2023-02-01T15:25:32.939Z,21.35
2023-02-01T15:26:32.991Z,21.44
2023-02-01T15:27:32.956Z,21.53
2023-02-01T15:28:32.927Z,21.62
2023-02-01T15:29:33.010Z,21.71
2023-02-01T15:30:32.992Z,21.80
2023-02-01T15:31:32.933Z,21.88
2023-02-01T15:32:32.881Z,21.95
2023-02-01T15:33:32.921Z,22.03
2023-02-01T15:34:32.907Z,22.08
2023-02-01T15:35:32.811Z,22.14
2023-02-01T15:36:33.063Z,22.19
2023-02-01T15:37:33.974Z,22.25
2023-02-01T15:38:32.898Z,22.30
2023-02-01T15:39:33.620Z,22.33
2023-02-01T15:40:32.732Z,22.38
2023-02-01T15:41:32.779Z,22.39
2023-02-01T15:42:32.749Z,22.41
2023-02-01T15:43:32.865Z,22.43
2023-02-01T15:44:34.082Z,22.44
2023-02-01T15:45:32.875Z,22.45
2023-02-01T15:46:32.791Z,22.44
2023-02-01T15:47:32.752Z,22.43
2023-02-01T15:48:32.679Z,22.44
2023-02-01T15:49:32.740Z,22.45
2023-02-01T15:50:32.709Z,22.47
2023-02-01T15:51:32.700Z,22.46
2023-02-01T15:52:32.682Z,22.47
2023-02-01T15:53:33.685Z,22.48
2023-02-01T15:54:32.783Z,22.48
2023-02-01T15:55:32.588Z,22.49
2023-02-01T15:56:32.795Z,22.50
2023-02-01T15:57:32.824Z,22.51
2023-02-01T15:58:32.834Z,22.50
2023-02-01T15:59:32.614Z,22.49
2023-02-01T16:00:32.639Z,22.50
2023-02-01T16:01:32.723Z,22.50
2023-02-01T16:02:32.597Z,22.51
2023-02-01T16:03:32.782Z,22.50
2023-02-01T16:04:32.658Z,22.47
2023-02-01T16:05:33.675Z,22.42
2023-02-01T16:06:32.797Z,22.42
2023-02-01T16:07:32.643Z,22.43
2023-02-01T16:08:32.786Z,22.43
2023-02-01T16:09:32.598Z,22.44
2023-02-01T16:10:32.527Z,22.44
2023-02-01T16:11:32.632Z,22.45
2023-02-01T16:34:06.614Z,22.12
2023-02-01T16:35:06.452Z,22.34
2023-02-01T16:36:06.456Z,22.40
2023-02-01T16:37:06.479Z,22.44
2023-02-01T16:38:06.525Z,22.47
2023-02-01T16:39:06.531Z,22.49
2023-02-01T16:40:06.596Z,22.51
2023-02-01T16:41:06.670Z,22.53
2023-02-01T16:42:09.430Z,22.53
2023-02-01T20:54:03.653Z,22.49
2023-02-01T21:54:21.640Z,22.48
2023-02-01T21:55:21.548Z,22.51
2023-02-01T23:07:37.027Z,22.53
2023-02-01T23:08:36.904Z,22.53
2023-02-01T23:09:36.954Z,22.53
2023-02-01T23:10:37.006Z,22.53
2023-02-01T23:53:05.049Z,22.07
2023-02-01T23:54:04.443Z,22.28
2023-02-01T23:55:04.541Z,22.34
